首页
METAR-TAF:

METAR-TAF

机场 :

吉布提-安布利国际机场

吉布地, 吉布提

纬度: 11-33N, 经度: 043-10E, 海拔: 49米

当前天气观测

该预报发布于54分钟前的14:00 UTC
风速7节,风向
温度 31°C
湿度 63%
气压 1013 hPa
能见度10公里或以上
少量云层高于2300英尺

METAR: HDAM 231400Z 08007KT 9999 FEW023 31/23 Q1013

时间: 17:54 (14:54 UTC)

预报

该预报发布于3小时和54分钟前的11:00 UTC
预报有效从23日的 12点(UTC)到 24日的 12点(UTC)
风速10节,风向,有时为15节阵风
能见度10公里或以上
散云层高于2300英尺
成为
从 23日的 15点(UTC)到 23日的 18点(UTC)
风速5节,风向多变
散云层高于2000英尺
成为
从 24日的 00点(UTC)到 24日的 06点(UTC)
风速节,风向
散云层高于2000英尺
散云层高于3000英尺

TAF: HDAM 231100Z 2312/2412 10010G15KT 9999 SCT023 BECMG 2315/2318 VRB05KT SCT020 BECMG 2400/2406 00000KT SCT020 SCT030

超过4000个机场的气象观测和天气预报(METAR&TAF报告)。

可查询的气象台以黄色和红色小点在地图上表示。

将鼠标移到小点上方,可查看气象台名称。

然后点击查看天气观测和预报。

如需切换地图:点击带黑十字的绿色按钮放大地图;点击带横线的绿色按钮缩小地图;或者点击绿色箭头查看邻近地区的地图。


METAR-TAF: